aviador You're here:

MMPA Decoded Metar

POZA RICO in MEXICO
Report Time2018-05-23 15:44:00
UTC Time2018-05-23 16:50:38
Flight Rules mvfr MVFR
WindCalm
Visibility8047 m
Phenomena:N/A
Clouds:Broken TCU 020 Hf
Expected CloudBase > 2,000 ft AGL from Temp-Dew spread
Ceiling2,000 ft
Temp29°C (ISA +15)
Dew Point24°C (74% RH)
Heat Index33.5°C
QNH1017 hPa
Density Alt2,438 ft
Elevation466 ft
Report Wrong Elevation
Raw Report
MMPA 231544Z 00000KT 5SM BKN020TCU 29/24 A3002 RMK 8/200 HZY=

Extra information for MMPA:More info

Metar Taf Metar & Taf Last 4 Metars F.Rules Stats Wind Profile Meteogram Temp Stats Airport Information Weather charts Add Link Nearby VenuesMetar ALERT Operation Metar Decoded Social comments